Airfield :
LOGIN :

Register | Disclaimer

   EN    FR    IT 

 










Legend :    VFR   Marginal VFR   IFR   Intensive IFR   Very Intensive IFR
Visi :
Ceiling :
>= 8 km
>= 3000ft
5 to 8 km
1000 to 3000 ft
1500m to 5 km
500 to 1000 ft
800 to 1500m
200 to 500 ft
< 800m
< 200 ft
Symbols :   Thunderstorms  Fog  Heavy snow  Heavy precipitations  Wind > 20 kt
SIGMETs :     Misc.  Thunderstorms  Icing  Turbulence  Mountain Waves  Volcanic Ashes






- Airport Elevation : 32 ft
- IATA code : NRK


ESSP - Norrköping

CURRENT METAR :
  • 210550Z 10010KT 3200 BR -DZ OVC004 07/07 Q1023

EXPIRED METARs :
  • 210520Z 09011KT 3500 BR -DZ OVC004 07/07 Q1023
  • 210450Z 10013KT 3500 BR DZ OVC004 07/07 Q1023
  • 210420Z AUTO 10012KT 2500 BR OVC002/// 07/07 Q1023
  • 210350Z AUTO 10012KT 2200 BR OVC002/// 07/07 Q1023
  • 210320Z AUTO 10010KT 3200 BR OVC002/// 07/07 Q1024
  • 210250Z AUTO 10011KT 2100 BR OVC002/// 07/07 Q1024

TAF TAF ESSP
Valid from the 21 at 06:00 until the 21 at 15:00 UTC


210530Z 2106/2115 10012KT 3500 BR BKN004
TEMPO 2106/2115 6000 BKN012



MET'MAP, your aeronautical weather chart ! - Copyright ORBIFLY December 2007 - Disclaimer

ORBIFLY MET'MAP TEAM :

Programming & Development : Alexandra Zaïnal
Concept & Development : Baudouin d'Aumeries
Co-Development & Prog : Marc-Olivier Méhu
Technical & hardware support : Manuel Goepfert

Contact : metmap@orbifly.com




SOURCES & CREDITS :

   NOAA